Time;durP1;ratioP1;P1;durP2;ratioP2;P2;SDS_P1;SDS_P2;PMS_P1;PMS_P2;Temp;Humidity;BMP_temperature;BMP_pressure;BME280_temperature;BME280_humidity;BME280_pressure;Samples;Min_cycle;Max_cycle;Signal;HPM_P1;HPM_P2
2021/01/19 00:01:54;;;;;;;49.80;26.92;;;51.60;1817.60;;;;;;5024028;28;20479;-66
2021/01/19 00:04:19;;;;;;;47.40;24.40;;;51.70;1843.20;;;;;;5021506;28;20026;-66
2021/01/19 00:06:45;;;;;;;58.55;26.92;;;51.70;1817.60;;;;;;5014499;28;20022;-66
2021/01/19 00:09:11;;;;;;;55.75;26.92;;;51.60;1843.20;;;;;;5014310;28;20036;-67
2021/01/19 00:11:36;;;;;;;51.38;26.52;;;51.70;1817.60;;;;;;5019289;28;20133;-67
2021/01/19 00:14:05;;;;;;;54.90;27.00;;;51.70;1843.20;;;;;;5023660;28;20029;-66
2021/01/19 00:16:30;;;;;;;53.58;26.45;;;51.60;1843.20;;;;;;5026090;28;20105;-66
2021/01/19 00:18:56;;;;;;;51.92;25.80;;;51.70;1843.20;;;;;;5033828;28;20068;-67
2021/01/19 00:21:22;;;;;;;55.80;26.48;;;51.70;1843.20;;;;;;5033397;28;20357;-66
2021/01/19 00:23:47;;;;;;;52.05;24.17;;;51.70;1843.20;;;;;;5031714;28;20439;-66
2021/01/19 00:26:13;;;;;;;49.60;25.48;;;51.70;1843.20;;;;;;5014165;28;20029;-66
2021/01/19 00:28:39;;;;;;;48.05;24.88;;;51.80;1843.20;;;;;;5026793;28;20029;-66
2021/01/19 00:31:07;;;;;;;51.35;24.98;;;51.70;1817.60;;;;;;5030734;28;20026;-66
2021/01/19 00:33:33;;;;;;;51.47;26.38;;;51.70;1817.60;;;;;;5031414;28;20037;-66
2021/01/19 00:35:58;;;;;;;48.72;25.02;;;51.80;1843.20;;;;;;5029423;28;20075;-66
2021/01/19 00:38:24;;;;;;;48.50;26.27;;;51.80;1843.20;;;;;;5022052;28;20101;-66
2021/01/19 00:40:50;;;;;;;48.88;24.88;;;51.80;1817.60;;;;;;5016514;28;20108;-66
2021/01/19 00:43:15;;;;;;;49.38;26.33;;;51.80;1817.60;;;;;;5023329;28;20022;-66
2021/01/19 00:45:41;;;;;;;53.40;26.85;;;51.80;1817.60;;;;;;5022496;28;20025;-67
2021/01/19 00:48:07;;;;;;;49.47;25.70;;;51.80;1843.20;;;;;;5021107;28;20080;-66
2021/01/19 00:50:33;;;;;;;47.25;24.23;;;51.90;1817.60;;;;;;5016526;28;20075;-67
2021/01/19 00:52:59;;;;;;;43.17;23.27;;;51.90;1843.20;;;;;;5019765;28;20060;-67
2021/01/19 00:55:25;;;;;;;41.85;22.77;;;51.90;1843.20;;;;;;5019289;28;20041;-66
2021/01/19 00:57:50;;;;;;;41.83;22.83;;;51.80;1817.60;;;;;;5031948;28;20060;-66
2021/01/19 01:00:16;;;;;;;41.90;23.42;;;51.90;1817.60;;;;;;5032932;28;20034;-66
2021/01/19 01:02:42;;;;;;;45.10;24.10;;;51.90;1817.60;;;;;;5033412;28;20022;-67
2021/01/19 01:05:09;;;;;;;41.33;22.70;;;51.90;1817.60;;;;;;5033353;28;20041;-67
2021/01/19 01:07:44;;;;;;;38.70;21.65;;;51.90;1817.60;;;;;;5033463;28;20042;-67
2021/01/19 01:10:14;;;;;;;37.33;22.10;;;51.90;1817.60;;;;;;5033551;28;20369;-66
2021/01/19 01:12:41;;;;;;;36.55;20.55;;;52.00;1817.60;;;;;;5033363;28;20037;-67
2021/01/19 01:15:08;;;;;;;34.03;20.00;;;52.00;1817.60;;;;;;5033275;28;20092;-67
2021/01/19 01:17:38;;;;;;;33.70;19.70;;;52.00;1817.60;;;;;;5033113;28;20033;-67
2021/01/19 01:20:08;;;;;;;35.13;20.00;;;52.00;1817.60;;;;;;5033417;28;20021;-67
2021/01/19 01:22:42;;;;;;;36.15;20.75;;;52.10;1817.60;;;;;;5033484;28;20045;-67
2021/01/19 01:25:15;;;;;;;33.38;19.75;;;52.00;1817.60;;;;;;5034822;28;20060;-67
2021/01/19 01:27:42;;;;;;;35.38;20.13;;;51.90;1817.60;;;;;;5037189;28;20092;-67
2021/01/19 01:30:10;;;;;;;33.33;19.00;;;52.00;1817.60;;;;;;5036976;28;20391;-67
2021/01/19 01:32:50;;;;;;;31.85;18.80;;;52.00;1792.00;;;;;;5036954;28;20539;-67
2021/01/19 01:35:17;;;;;;;34.97;20.70;;;52.00;1817.60;;;;;;5037071;28;20041;-67
2021/01/19 01:37:47;;;;;;;31.65;18.70;;;52.00;1792.00;;;;;;5037079;28;20033;-66
2021/01/19 01:40:16;;;;;;;34.33;19.63;;;52.00;1817.60;;;;;;5036904;28;20022;-66
2021/01/19 01:42:42;;;;;;;63.00;28.38;;;52.00;1817.60;;;;;;5036894;28;20025;-67
2021/01/19 01:45:09;;;;;;;63.95;30.20;;;52.00;1792.00;;;;;;5036638;28;20052;-67
2021/01/19 01:47:34;;;;;;;59.63;28.52;;;52.00;1792.00;;;;;;5036553;28;20022;-67
2021/01/19 01:50:00;;;;;;;46.33;25.70;;;52.00;1792.00;;;;;;5036500;28;20493;-66
2021/01/19 01:52:29;;;;;;;43.40;24.92;;;51.90;1792.00;;;;;;5036609;28;20034;-66
2021/01/19 01:54:55;;;;;;;38.95;22.52;;;52.00;1792.00;;;;;;5036623;28;20091;-66
2021/01/19 01:57:21;;;;;;;36.72;20.77;;;52.00;1792.00;;;;;;5036715;28;20411;-67
2021/01/19 01:59:54;;;;;;;36.72;20.67;;;52.00;1792.00;;;;;;5036436;28;20045;-67
2021/01/19 02:02:20;;;;;;;32.13;19.35;;;51.90;1792.00;;;;;;5036174;28;20024;-67
2021/01/19 02:04:45;;;;;;;29.55;17.50;;;51.90;1792.00;;;;;;5018694;28;20026;-67
2021/01/19 02:07:29;;;;;;;32.28;18.85;;;52.00;1792.00;;;;;;5036321;28;20473;-66
2021/01/19 02:10:22;;;;;;;31.58;18.38;;;52.00;1792.00;;;;;;5036475;28;20095;-66
2021/01/19 02:13:00;;;;;;;34.33;19.00;;;52.10;1792.00;;;;;;5036147;28;20041;-67
2021/01/19 02:15:40;;;;;;;32.28;17.70;;;52.10;1792.00;;;;;;5036256;28;20456;-67
2021/01/19 02:18:18;;;;;;;27.08;17.48;;;52.00;1792.00;;;;;;5036110;28;20049;-67
2021/01/19 02:21:21;;;;;;;27.30;17.27;;;52.10;1792.00;;;;;;5036123;28;20108;-67
2021/01/19 02:24:09;;;;;;;29.00;17.25;;;52.00;1792.00;;;;;;5036072;28;20035;-66
2021/01/19 02:26:37;;;;;;;28.33;16.48;;;52.10;1792.00;;;;;;5036250;28;20037;-66
2021/01/19 02:29:40;;;;;;;30.10;17.33;;;52.10;1792.00;;;;;;5036064;28;20022;-67
2021/01/19 02:32:31;;;;;;;27.98;16.08;;;52.10;1792.00;;;;;;5035923;28;20104;-66
2021/01/19 02:35:19;;;;;;;30.83;17.65;;;52.10;1792.00;;;;;;5035861;28;20121;-66
2021/01/19 02:38:19;;;;;;;28.23;17.27;;;52.10;1766.40;;;;;;5034581;28;20018;-66
2021/01/19 02:40:47;;;;;;;29.77;17.70;;;52.10;1766.40;;;;;;5035493;28;20033;-66
2021/01/19 02:43:20;;;;;;;37.53;18.63;;;52.10;1766.40;;;;;;5035671;28;20029;-66
2021/01/19 02:45:47;;;;;;;30.40;16.80;;;52.10;1766.40;;;;;;5035410;28;20032;-66
2021/01/19 02:48:13;;;;;;;29.35;17.63;;;52.10;1766.40;;;;;;5035543;28;20082;-66
2021/01/19 02:50:38;;;;;;;34.75;20.30;;;52.10;1766.40;;;;;;5035400;28;20120;-66
2021/01/19 02:53:06;;;;;;;50.85;27.80;;;52.10;1766.40;;;;;;5034856;28;20033;-66
2021/01/19 02:55:32;;;;;;;74.03;43.67;;;52.10;1766.40;;;;;;5035436;28;20034;-66
2021/01/19 02:58:05;;;;;;;95.57;50.78;;;52.10;1766.40;;;;;;5035369;28;20022;-66
2021/01/19 03:00:49;;;;;;;89.85;52.38;;;52.10;1766.40;;;;;;5035381;28;20116;-66
2021/01/19 03:03:16;;;;;;;89.78;52.88;;;52.10;1766.40;;;;;;5035191;28;20029;-66
2021/01/19 03:05:42;;;;;;;83.18;46.78;;;52.10;1766.40;;;;;;5035479;28;20113;-66
2021/01/19 03:08:09;;;;;;;61.60;37.35;;;52.10;1766.40;;;;;;5035317;28;20079;-66
2021/01/19 03:10:39;;;;;;;58.78;30.55;;;52.10;1766.40;;;;;;5035004;28;20040;-67
2021/01/19 03:13:10;;;;;;;49.35;26.35;;;52.10;1766.40;;;;;;5035172;28;20061;-66
2021/01/19 03:15:35;;;;;;;42.88;23.90;;;52.10;1766.40;;;;;;5035150;28;20075;-66
2021/01/19 03:18:01;;;;;;;41.47;20.45;;;76.80;1766.40;;;;;;5035155;28;20022;-67
2021/01/19 03:20:27;;;;;;;34.85;20.02;;;76.80;1766.40;;;;;;5035082;28;20079;-66
2021/01/19 03:22:53;;;;;;;33.13;17.05;;;52.10;1766.40;;;;;;5035050;28;20076;-66
2021/01/19 03:25:19;;;;;;;28.65;17.02;;;52.10;1740.80;;;;;;5034966;28;20348;-66
2021/01/19 03:27:45;;;;;;;30.70;17.15;;;52.00;1766.40;;;;;;5034983;28;20022;-66
2021/01/19 03:30:12;;;;;;;32.03;17.40;;;52.00;1766.40;;;;;;5034714;28;20036;-65
2021/01/19 03:32:37;;;;;;;33.25;18.38;;;52.00;1766.40;;;;;;5034741;28;20106;-65
2021/01/19 03:35:04;;;;;;;30.52;17.98;;;52.10;1766.40;;;;;;5034655;28;20041;-66
2021/01/19 03:37:30;;;;;;;37.70;18.92;;;51.90;1792.00;;;;;;5034237;28;20075;-66
2021/01/19 03:39:56;;;;;;;30.55;17.70;;;51.90;1792.00;;;;;;5034534;28;20394;-66
2021/01/19 03:42:21;;;;;;;30.83;17.45;;;51.90;1766.40;;;;;;5034705;28;20021;-65
2021/01/19 03:44:47;;;;;;;30.40;17.85;;;51.90;1792.00;;;;;;5034591;28;20041;-66
2021/01/19 03:47:12;;;;;;;31.35;18.30;;;51.90;1792.00;;;;;;5034158;28;20021;-65
2021/01/19 03:49:38;;;;;;;30.88;18.95;;;51.90;1792.00;;;;;;5034800;28;20033;-66
2021/01/19 03:52:04;;;;;;;30.40;17.98;;;51.90;1792.00;;;;;;5034600;28;20048;-66
2021/01/19 03:54:29;;;;;;;27.40;16.23;;;51.80;1817.60;;;;;;5034586;28;20041;-66
2021/01/19 03:56:55;;;;;;;25.60;17.02;;;51.80;1792.00;;;;;;5034243;28;20116;-66
2021/01/19 03:59:21;;;;;;;25.83;16.58;;;51.80;1817.60;;;;;;5034395;28;20030;-66
2021/01/19 04:01:49;;;;;;;26.45;15.43;;;51.80;1792.00;;;;;;5034130;28;20029;-66
2021/01/19 04:04:15;;;;;;;27.70;16.25;;;51.80;1792.00;;;;;;5034126;28;20064;-66
2021/01/19 04:06:40;;;;;;;26.50;16.23;;;51.80;1792.00;;;;;;5034129;28;20040;-66
2021/01/19 04:09:06;;;;;;;24.70;16.30;;;51.80;1817.60;;;;;;5034234;28;20033;-66
2021/01/19 04:11:32;;;;;;;34.78;20.08;;;51.80;1817.60;;;;;;5033872;28;20054;-66
2021/01/19 04:13:58;;;;;;;48.42;27.42;;;51.80;1817.60;;;;;;5034171;28;20042;-66
2021/01/19 04:16:23;;;;;;;42.25;23.65;;;51.80;1792.00;;;;;;5033829;28;20025;-66
2021/01/19 04:18:49;;;;;;;37.10;22.00;;;51.80;1792.00;;;;;;5033802;28;20460;-66
2021/01/19 04:21:15;;;;;;;35.13;20.15;;;51.80;1817.60;;;;;;5033835;28;20021;-66
2021/01/19 04:23:40;;;;;;;31.58;18.15;;;51.80;1817.60;;;;;;5033954;28;20108;-66
2021/01/19 04:26:06;;;;;;;31.13;17.65;;;51.80;1792.00;;;;;;5032604;28;20032;-66
2021/01/19 04:28:32;;;;;;;29.55;16.77;;;51.80;1817.60;;;;;;5033730;28;20084;-66
2021/01/19 04:30:58;;;;;;;25.63;15.63;;;51.80;1792.00;;;;;;5033933;28;20057;-66
2021/01/19 04:33:23;;;;;;;25.55;15.55;;;51.80;1817.60;;;;;;5033496;28;20025;-66
2021/01/19 04:35:49;;;;;;;30.67;16.65;;;51.80;1817.60;;;;;;5033812;28;20033;-66
2021/01/19 04:38:15;;;;;;;27.92;16.60;;;51.90;1817.60;;;;;;5033630;28;20468;-66
2021/01/19 04:40:40;;;;;;;33.45;17.08;;;51.90;1817.60;;;;;;5033658;28;20025;-66
2021/01/19 04:43:06;;;;;;;28.65;17.67;;;51.90;1817.60;;;;;;5033691;28;20063;-66
2021/01/19 04:45:33;;;;;;;29.33;16.67;;;51.80;1817.60;;;;;;5033346;28;20480;-66
2021/01/19 04:48:01;;;;;;;45.90;25.60;;;51.90;1817.60;;;;;;5033701;28;20029;-66
2021/01/19 04:50:29;;;;;;;48.30;26.20;;;51.90;1817.60;;;;;;5033644;28;20040;-66
2021/01/19 04:52:59;;;;;;;43.03;25.52;;;51.80;1817.60;;;;;;5033426;28;20025;-66
2021/01/19 04:55:26;;;;;;;44.85;26.48;;;51.90;1817.60;;;;;;5033735;28;20109;-66
2021/01/19 04:57:59;;;;;;;41.22;24.83;;;51.90;1817.60;;;;;;5033655;28;20517;-65
2021/01/19 05:00:34;;;;;;;40.78;22.38;;;52.00;1817.60;;;;;;5035839;28;20029;-66
2021/01/19 05:03:16;;;;;;;38.00;22.42;;;52.00;1817.60;;;;;;5037677;28;20025;-66
2021/01/19 05:05:59;;;;;;;41.20;21.90;;;52.10;1817.60;;;;;;5037517;28;20100;-66
2021/01/19 05:08:27;;;;;;;37.40;20.27;;;52.10;1792.00;;;;;;5037238;28;20030;-66
2021/01/19 05:11:01;;;;;;;36.00;19.40;;;52.10;1792.00;;;;;;5037604;28;20042;-66
2021/01/19 05:13:48;;;;;;;31.35;18.20;;;52.10;1792.00;;;;;;5037319;28;20042;-66
2021/01/19 05:16:20;;;;;;;34.65;19.35;;;76.80;1792.00;;;;;;5037278;28;20025;-65
2021/01/19 05:18:47;;;;;;;30.90;17.80;;;76.80;1792.00;;;;;;5037334;28;20078;-65
2021/01/19 05:21:13;;;;;;;34.20;17.08;;;76.80;1792.00;;;;;;5037393;28;20034;-66
2021/01/19 05:23:39;;;;;;;33.17;18.92;;;76.80;1792.00;;;;;;5037254;28;20064;-65
2021/01/19 05:26:07;;;;;;;37.47;19.13;;;76.80;1766.40;;;;;;5037457;28;20033;-66
2021/01/19 05:28:38;;;;;;;33.47;19.20;;;76.80;1792.00;;;;;;5037220;28;20032;-65
2021/01/19 05:31:18;;;;;;;43.08;22.25;;;76.80;1792.00;;;;;;5036909;28;20084;-65
2021/01/19 05:33:52;;;;;;;38.83;21.00;;;76.80;1792.00;;;;;;5036937;28;20383;-66
2021/01/19 05:36:19;;;;;;;35.63;20.10;;;52.10;1792.00;;;;;;5036975;28;20025;-65
2021/01/19 05:38:49;;;;;;;32.40;17.77;;;76.80;1792.00;;;;;;5036667;28;20040;-65
2021/01/19 05:41:50;;;;;;;33.92;17.83;;;76.80;1792.00;;;;;;5036834;28;20041;-66
2021/01/19 05:44:26;;;;;;;34.38;18.67;;;76.80;1766.40;;;;;;5036982;28;20031;-65
2021/01/19 05:46:52;;;;;;;31.23;18.48;;;76.80;1792.00;;;;;;5036484;28;20061;-65
2021/01/19 05:49:23;;;;;;;33.17;17.40;;;76.80;1792.00;;;;;;5037061;28;20386;-65
2021/01/19 05:51:53;;;;;;;28.45;17.08;;;76.80;1766.40;;;;;;5036609;28;20497;-65
2021/01/19 05:54:26;;;;;;;28.38;16.67;;;76.80;1792.00;;;;;;5036564;28;20084;-65
2021/01/19 05:56:59;;;;;;;30.38;17.92;;;76.80;1766.40;;;;;;5036417;28;20014;-66
2021/01/19 05:59:35;;;;;;;31.10;18.75;;;76.80;1792.00;;;;;;5036745;28;20025;-66
2021/01/19 06:02:12;;;;;;;26.25;16.55;;;52.10;1792.00;;;;;;5036318;28;20036;-65
2021/01/19 06:04:41;;;;;;;28.30;16.08;;;52.10;1792.00;;;;;;5036426;28;20539;-65
2021/01/19 06:07:09;;;;;;;63.25;39.80;;;76.80;1792.00;;;;;;5036399;28;20438;-66
2021/01/19 06:09:36;;;;;;;41.35;26.38;;;76.80;1792.00;;;;;;5036193;28;20021;-65
2021/01/19 06:12:02;;;;;;;35.00;22.10;;;76.80;1792.00;;;;;;5035999;28;20063;-65
2021/01/19 06:14:33;;;;;;;31.45;20.63;;;76.80;1792.00;;;;;;5036053;28;20034;-65
2021/01/19 06:17:05;;;;;;;31.67;20.30;;;76.80;1792.00;;;;;;5036413;28;20383;-65
2021/01/19 06:19:31;;;;;;;29.27;17.92;;;76.80;1792.00;;;;;;5036279;28;20026;-65
2021/01/19 06:21:58;;;;;;;27.58;16.15;;;76.80;1792.00;;;;;;5036192;28;20025;-65
2021/01/19 06:24:37;;;;;;;30.30;17.35;;;76.80;1792.00;;;;;;5036222;28;20375;-65
2021/01/19 06:27:04;;;;;;;31.63;17.42;;;76.80;1792.00;;;;;;5036539;28;20095;-65
2021/01/19 06:29:31;;;;;;;29.75;17.52;;;76.80;1792.00;;;;;;5035816;28;20026;-65
2021/01/19 06:31:59;;;;;;;29.80;16.45;;;76.80;1792.00;;;;;;5035799;28;20021;-65
2021/01/19 06:34:29;;;;;;;28.73;17.10;;;76.80;1792.00;;;;;;5035626;28;20036;-65
2021/01/19 06:36:55;;;;;;;28.02;17.23;;;76.80;1792.00;;;;;;5035722;28;20379;-65
2021/01/19 06:39:31;;;;;;;28.25;17.65;;;76.80;1792.00;;;;;;5035768;28;20029;-65
2021/01/19 06:42:11;;;;;;;32.03;19.05;;;76.80;1792.00;;;;;;5035573;28;20029;-65
2021/01/19 06:44:39;;;;;;;32.92;19.67;;;76.80;1817.60;;;;;;5035656;28;20033;-65
2021/01/19 06:47:06;;;;;;;35.78;20.88;;;76.80;1817.60;;;;;;5035591;28;20021;-65
2021/01/19 06:49:34;;;;;;;38.50;20.83;;;76.80;1817.60;;;;;;5035753;28;20037;-66
2021/01/19 06:52:07;;;;;;;32.50;19.77;;;76.80;1817.60;;;;;;5035501;28;20025;-66
2021/01/19 06:55:05;;;;;;;38.65;21.02;;;76.80;1817.60;;;;;;5035362;28;20029;-66
2021/01/19 06:57:38;;;;;;;34.92;21.13;;;76.80;1843.20;;;;;;5035110;28;20356;-66
2021/01/19 07:00:18;;;;;;;47.08;26.95;;;76.80;1843.20;;;;;;5035419;28;20025;-66
2021/01/19 07:02:45;;;;;;;52.78;29.88;;;76.80;1843.20;;;;;;5035462;28;20029;-66
2021/01/19 07:05:12;;;;;;;48.88;29.20;;;76.90;1843.20;;;;;;5035470;28;20100;-66
2021/01/19 07:08:01;;;;;;;47.92;27.33;;;76.90;1843.20;;;;;;5035219;28;20025;-66
2021/01/19 07:10:48;;;;;;;52.60;27.27;;;76.90;1843.20;;;;;;5034967;28;20467;-66
2021/01/19 07:13:24;;;;;;;55.33;30.48;;;76.90;1843.20;;;;;;5035236;28;20030;-67
2021/01/19 07:16:05;;;;;;;53.28;30.70;;;76.90;1868.80;;;;;;5034963;28;20029;-66
2021/01/19 07:18:44;;;;;;;73.40;37.40;;;77.00;1843.20;;;;;;5035040;28;20508;-66
2021/01/19 07:21:17;;;;;;;198.38;100.60;;;77.00;1843.20;;;;;;5035096;28;20057;-66
2021/01/19 07:23:46;;;;;;;192.82;105.07;;;77.00;1843.20;;;;;;5034402;28;20459;-66
2021/01/19 07:26:21;;;;;;;170.23;92.63;;;77.00;1843.20;;;;;;5035061;28;20155;-66
2021/01/19 07:28:48;;;;;;;178.68;96.00;;;77.10;1843.20;;;;;;5034859;28;20025;-66
2021/01/19 07:31:19;;;;;;;240.95;115.40;;;77.10;1817.60;;;;;;5034814;28;20112;-65
2021/01/19 07:33:52;;;;;;;307.75;141.25;;;77.10;1817.60;;;;;;5034785;28;20037;-66
2021/01/19 07:36:23;;;;;;;246.60;121.05;;;77.10;1817.60;;;;;;5034944;28;20021;-66
2021/01/19 07:38:49;;;;;;;245.02;118.13;;;77.10;1817.60;;;;;;5034398;28;20434;-66
2021/01/19 07:41:41;;;;;;;223.27;110.72;;;77.10;1817.60;;;;;;5034439;28;20021;-66
2021/01/19 07:44:07;;;;;;;172.30;86.03;;;77.20;1843.20;;;;;;5032443;28;20550;-66
2021/01/19 07:46:33;;;;;;;135.70;70.38;;;77.30;1843.20;;;;;;5034353;28;20080;-66
2021/01/19 07:49:00;;;;;;;106.18;57.60;;;77.30;1817.60;;;;;;5034678;28;20100;-66
2021/01/19 07:51:37;;;;;;;92.93;52.22;;;77.40;1817.60;;;;;;5034401;28;20108;-66
2021/01/19 07:54:02;;;;;;;110.05;52.58;;;77.40;1817.60;;;;;;5034393;28;20386;-66
2021/01/19 07:56:29;;;;;;;135.38;56.72;;;77.50;1817.60;;;;;;5034498;28;20105;-67
2021/01/19 07:58:56;;;;;;;117.97;51.00;;;77.50;1817.60;;;;;;5034419;28;20422;-66
2021/01/19 08:01:29;;;;;;;108.47;45.97;;;77.50;1817.60;;;;;;5034415;28;20034;-66
2021/01/19 08:04:06;;;;;;;79.97;37.70;;;77.60;1792.00;;;;;;5034499;28;20021;-66
2021/01/19 08:06:32;;;;;;;61.38;32.63;;;77.60;1792.00;;;;;;5033906;28;20053;-67
2021/01/19 08:09:19;;;;;;;56.42;27.98;;;77.70;1766.40;;;;;;5034076;28;20104;-67
2021/01/19 08:11:46;;;;;;;59.95;34.75;;;77.70;1792.00;;;;;;5033948;28;20041;-67
2021/01/19 08:14:12;;;;;;;73.82;43.35;;;77.70;1766.40;;;;;;5033835;28;20116;-67
2021/01/19 08:16:42;;;;;;;91.82;56.58;;;77.70;1792.00;;;;;;5034031;28;20117;-67
2021/01/19 08:19:11;;;;;;;96.82;58.40;;;102.40;1792.00;;;;;;5034120;28;20029;-67
2021/01/19 08:21:50;;;;;;;138.70;75.13;;;102.40;1792.00;;;;;;5034046;28;20029;-67
2021/01/19 08:24:18;;;;;;;100.88;59.22;;;102.40;1740.80;;;;;;5033865;28;20030;-67
2021/01/19 08:26:44;;;;;;;96.65;54.95;;;102.40;1766.40;;;;;;5034015;28;20021;-68
2021/01/19 08:29:10;;;;;;;101.60;51.20;;;102.40;1766.40;;;;;;5034094;28;20029;-68
2021/01/19 08:31:36;;;;;;;98.60;44.92;;;102.50;1766.40;;;;;;5033816;28;20049;-68
2021/01/19 08:34:05;;;;;;;102.15;45.28;;;102.60;1766.40;;;;;;5033046;28;20073;-68
2021/01/19 08:36:31;;;;;;;198.20;82.25;;;102.60;1766.40;;;;;;5033766;28;20017;-68
2021/01/19 08:38:59;;;;;;;189.68;85.35;;;102.60;1766.40;;;;;;5033768;28;20434;-68
2021/01/19 08:41:26;;;;;;;166.60;78.20;;;102.60;1766.40;;;;;;5033701;28;20025;-68
2021/01/19 08:43:58;;;;;;;179.27;86.97;;;102.60;1766.40;;;;;;5033574;28;20031;-68
2021/01/19 08:46:26;;;;;;;179.30;84.35;;;102.60;1766.40;;;;;;5033732;28;20049;-68
2021/01/19 08:48:52;;;;;;;121.35;60.75;;;102.60;1766.40;;;;;;5033544;28;20468;-67
2021/01/19 08:51:25;;;;;;;104.50;55.47;;;102.70;1740.80;;;;;;5033691;28;20371;-67
2021/01/19 08:53:52;;;;;;;110.22;50.72;;;102.60;1740.80;;;;;;5033369;28;20403;-67
2021/01/19 08:56:22;;;;;;;72.53;38.78;;;102.70;1740.80;;;;;;5033577;28;20598;-66
2021/01/19 08:58:48;;;;;;;81.78;42.38;;;102.70;1740.80;;;;;;5033642;28;20021;-66
2021/01/19 09:01:15;;;;;;;77.40;42.47;;;102.70;1740.80;;;;;;5033460;28;20112;-67
2021/01/19 09:03:41;;;;;;;100.43;53.80;;;102.80;1740.80;;;;;;5033702;28;20033;-67
2021/01/19 09:06:12;;;;;;;98.20;55.53;;;102.80;1740.80;;;;;;5033394;28;20105;-67
2021/01/19 09:08:43;;;;;;;66.53;37.22;;;102.80;1740.80;;;;;;5033324;28;20033;-66
2021/01/19 09:11:10;;;;;;;69.55;39.80;;;102.90;1740.80;;;;;;5032316;28;20554;-69
2021/01/19 09:13:40;;;;;;;63.88;36.00;;;102.90;1766.40;;;;;;5030962;28;20124;-75
2021/01/19 09:16:06;;;;;;;62.10;39.03;;;103.00;1740.80;;;;;;5032602;28;20026;-69
2021/01/19 09:18:33;;;;;;;84.80;50.30;;;103.00;1766.40;;;;;;5032450;28;20096;-74
2021/01/19 09:21:10;;;;;;;74.63;46.97;;;103.10;1766.40;;;;;;5030846;28;20029;-73
2021/01/19 09:23:36;;;;;;;84.88;56.08;;;103.10;1740.80;;;;;;5032691;28;20059;-71
2021/01/19 09:26:07;;;;;;;89.38;53.40;;;103.10;1740.80;;;;;;5032634;28;20041;-68
2021/01/19 09:28:38;;;;;;;106.75;62.60;;;103.10;1740.80;;;;;;5032174;28;20033;-71
2021/01/19 09:31:15;;;;;;;79.53;53.95;;;103.10;1740.80;;;;;;5032349;28;20471;-68
2021/01/19 09:33:42;;;;;;;75.95;45.70;;;103.20;1740.80;;;;;;5030848;28;20042;-69
2021/01/19 09:36:10;;;;;;;73.88;45.22;;;103.20;1740.80;;;;;;5032269;28;20108;-69
2021/01/19 09:38:37;;;;;;;74.53;45.30;;;103.30;1740.80;;;;;;5031194;28;20030;-69
2021/01/19 09:41:04;;;;;;;70.60;44.97;;;128.00;1792.00;;;;;;5031971;28;20525;-69
2021/01/19 09:43:30;;;;;;;96.80;57.50;;;128.20;1792.00;;;;;;5031949;28;20108;-69
2021/01/19 09:46:05;;;;;;;132.48;75.22;;;128.30;1766.40;;;;;;5032312;28;20033;-75
2021/01/19 09:48:33;;;;;;;130.93;75.88;;;128.30;1766.40;;;;;;5034137;28;20032;-69
2021/01/19 09:51:04;;;;;;;173.90;101.00;;;128.40;1766.40;;;;;;5035430;28;20476;-69
2021/01/19 09:53:35;;;;;;;208.23;119.35;;;128.40;1740.80;;;;;;5035893;28;20486;-68
2021/01/19 09:56:01;;;;;;;183.60;106.95;;;128.60;1766.40;;;;;;5036848;28;20037;-68
2021/01/19 09:58:28;;;;;;;156.25;94.45;;;128.70;1766.40;;;;;;5035742;28;20049;-68
2021/01/19 10:00:55;;;;;;;129.82;79.05;;;128.90;1766.40;;;;;;5035606;28;20109;-68
2021/01/19 10:03:25;;;;;;;109.93;65.60;;;153.60;1766.40;;;;;;5035812;28;20367;-68
2021/01/19 10:05:59;;;;;;;84.18;52.42;;;153.70;1766.40;;;;;;5035783;28;20022;-69
2021/01/19 10:08:25;;;;;;;82.45;45.58;;;153.80;1766.40;;;;;;5035232;28;20033;-68
2021/01/19 10:10:51;;;;;;;66.10;41.25;;;153.80;1689.60;;;;;;5035678;28;20144;-68
2021/01/19 10:13:23;;;;;;;91.97;44.92;;;153.80;1689.60;;;;;;5035773;28;20068;-68
2021/01/19 10:16:01;;;;;;;69.03;40.60;;;154.00;1689.60;;;;;;5035871;28;20021;-68
2021/01/19 10:18:27;;;;;;;65.07;38.35;;;154.00;1689.60;;;;;;5033798;28;20155;-69
2021/01/19 10:20:52;;;;;;;66.47;41.72;;;154.10;1689.60;;;;;;5028109;28;20426;-69
2021/01/19 10:23:48;;;;;;;72.97;40.00;;;154.20;1664.00;;;;;;5035536;28;20022;-69
2021/01/19 10:26:14;;;;;;;58.70;35.10;;;154.30;1664.00;;;;;;5035199;28;20955;-68
2021/01/19 10:28:42;;;;;;;68.90;35.50;;;154.40;1689.60;;;;;;5036125;28;20017;-68
2021/01/19 10:31:14;;;;;;;58.17;32.97;;;179.20;1689.60;;;;;;5035873;28;20022;-68
2021/01/19 10:33:56;;;;;;;73.72;38.20;;;179.20;1664.00;;;;;;5035615;28;20344;-72
2021/01/19 10:36:23;;;;;;;69.13;37.50;;;179.20;1612.80;;;;;;5035967;28;20036;-66
2021/01/19 10:38:48;;;;;;;92.32;50.22;;;179.20;1612.80;;;;;;5035570;28;20029;-66
2021/01/19 10:41:28;;;;;;;104.80;56.20;;;179.30;1638.40;;;;;;5035836;28;20079;-66
2021/01/19 10:43:55;;;;;;;104.80;61.03;;;179.40;1638.40;;;;;;5035875;28;20025;-66
2021/01/19 10:46:23;;;;;;;96.55;53.13;;;179.50;1664.00;;;;;;5035230;28;20048;-66
2021/01/19 10:49:13;;;;;;;104.43;53.88;;;179.60;1638.40;;;;;;5036061;28;20032;-67
2021/01/19 10:51:41;;;;;;;137.77;60.28;;;179.60;1664.00;;;;;;5035498;28;20368;-67
2021/01/19 10:54:07;;;;;;;105.95;51.83;;;179.80;1664.00;;;;;;5035639;28;20123;-67
2021/01/19 10:56:33;;;;;;;98.95;45.53;;;179.80;1689.60;;;;;;5035362;28;20126;-66
2021/01/19 10:58:59;;;;;;;100.15;49.30;;;179.90;1689.60;;;;;;5034760;28;20060;-66
2021/01/19 11:01:26;;;;;;;106.88;54.13;;;180.00;1664.00;;;;;;5035379;28;20034;-67
2021/01/19 11:03:52;;;;;;;121.43;59.30;;;180.10;1664.00;;;;;;5035482;28;20032;-66
2021/01/19 11:06:18;;;;;;;94.22;50.00;;;180.10;1638.40;;;;;;5035480;28;20438;-67
2021/01/19 11:08:44;;;;;;;74.70;37.45;;;204.80;1638.40;;;;;;5034243;28;20068;-66
2021/01/19 11:11:13;;;;;;;60.45;34.13;;;204.80;1587.20;;;;;;5034912;28;20064;-66
2021/01/19 11:13:38;;;;;;;48.47;26.42;;;204.80;1587.20;;;;;;5035093;28;20124;-66
2021/01/19 11:16:05;;;;;;;41.38;25.17;;;204.90;1612.80;;;;;;5035121;28;20116;-66
2021/01/19 11:18:31;;;;;;;48.70;27.50;;;204.90;1612.80;;;;;;5034875;28;20040;-67
2021/01/19 11:20:57;;;;;;;50.78;27.10;;;205.00;1587.20;;;;;;5034880;28;20033;-67
2021/01/19 11:23:22;;;;;;;48.15;26.77;;;205.20;1638.40;;;;;;5034780;28;20030;-66
2021/01/19 11:25:48;;;;;;;94.63;36.17;;;205.30;1612.80;;;;;;5034752;28;20033;-66
2021/01/19 11:28:14;;;;;;;80.43;36.20;;;205.40;1638.40;;;;;;5034891;28;20104;-66
2021/01/19 11:30:40;;;;;;;86.00;38.70;;;205.50;1612.80;;;;;;5035045;28;20032;-66
2021/01/19 11:33:06;;;;;;;131.80;52.97;;;205.50;1638.40;;;;;;5034912;28;20095;-66
2021/01/19 11:35:35;;;;;;;144.52;51.13;;;205.60;1612.80;;;;;;5034768;28;20479;-66
2021/01/19 11:38:02;;;;;;;114.78;46.83;;;205.60;1612.80;;;;;;5033359;28;20368;-66
2021/01/19 11:40:28;;;;;;;104.25;54.75;;;205.60;1612.80;;;;;;5034559;28;20394;-66
2021/01/19 11:42:53;;;;;;;97.45;56.75;;;205.70;1612.80;;;;;;5034266;28;20104;-66
2021/01/19 11:45:20;;;;;;;83.93;51.35;;;205.70;1612.80;;;;;;5034634;28;20356;-66
2021/01/19 11:47:46;;;;;;;80.57;45.55;;;205.70;1612.80;;;;;;5034182;28;20021;-66
2021/01/19 11:50:12;;;;;;;79.72;42.30;;;205.70;1587.20;;;;;;5034626;28;20021;-66
2021/01/19 11:52:38;;;;;;;56.65;32.22;;;205.70;1587.20;;;;;;5034455;28;20026;-67
2021/01/19 11:55:06;;;;;;;48.05;27.42;;;205.70;1612.80;;;;;;5034498;28;20583;-66
2021/01/19 11:57:32;;;;;;;69.13;31.23;;;205.70;1612.80;;;;;;5034520;28;20021;-65
2021/01/19 11:59:57;;;;;;;51.53;28.55;;;205.70;1612.80;;;;;;5032988;28;20095;-66
2021/01/19 12:02:23;;;;;;;56.70;30.85;;;205.70;1587.20;;;;;;5034402;28;20407;-66
2021/01/19 12:04:49;;;;;;;50.80;28.38;;;205.70;1587.20;;;;;;5034528;28;20018;-66
2021/01/19 12:07:14;;;;;;;48.40;28.25;;;205.70;1638.40;;;;;;5034156;28;20097;-66
2021/01/19 12:09:40;;;;;;;46.22;27.88;;;230.40;1612.80;;;;;;5034518;28;20497;-66
2021/01/19 12:12:07;;;;;;;51.92;30.38;;;230.40;1612.80;;;;;;5033946;28;20123;-66
2021/01/19 12:14:33;;;;;;;84.32;38.53;;;230.40;1612.80;;;;;;5034018;28;20037;-66
2021/01/19 12:16:59;;;;;;;90.88;38.50;;;230.40;1612.80;;;;;;5034101;28;20108;-66